sensor_id;sensor_type;location;lat;lon;timestamp;P1;durP1;ratioP1;P2;durP2;ratioP2
8488;SDS011;4281;45.772;12.852;2023-06-24T00:00:56;3.53;;;2.93;;
8488;SDS011;4281;45.772;12.852;2023-06-24T00:03:24;3.50;;;2.90;;
8488;SDS011;4281;45.772;12.852;2023-06-24T00:05:52;3.50;;;3.10;;
8488;SDS011;4281;45.772;12.852;2023-06-24T00:08:23;3.97;;;3.00;;
8488;SDS011;4281;45.772;12.852;2023-06-24T00:11:00;4.43;;;3.07;;
8488;SDS011;4281;45.772;12.852;2023-06-24T00:13:30;3.40;;;3.10;;
8488;SDS011;4281;45.772;12.852;2023-06-24T00:15:58;3.20;;;2.90;;
8488;SDS011;4281;45.772;12.852;2023-06-24T00:18:26;3.57;;;2.87;;
8488;SDS011;4281;45.772;12.852;2023-06-24T00:20:55;2.80;;;2.60;;
8488;SDS011;4281;45.772;12.852;2023-06-24T00:23:23;3.43;;;2.80;;
8488;SDS011;4281;45.772;12.852;2023-06-24T00:25:52;4.47;;;2.87;;
8488;SDS011;4281;45.772;12.852;2023-06-24T00:28:20;3.27;;;2.80;;
8488;SDS011;4281;45.772;12.852;2023-06-24T00:30:50;2.87;;;2.67;;
8488;SDS011;4281;45.772;12.852;2023-06-24T00:33:18;4.23;;;2.70;;
8488;SDS011;4281;45.772;12.852;2023-06-24T00:35:47;2.90;;;2.70;;
8488;SDS011;4281;45.772;12.852;2023-06-24T00:38:15;3.37;;;3.07;;
8488;SDS011;4281;45.772;12.852;2023-06-24T00:40:43;3.50;;;3.20;;
8488;SDS011;4281;45.772;12.852;2023-06-24T00:43:12;4.53;;;2.70;;
8488;SDS011;4281;45.772;12.852;2023-06-24T00:45:40;3.27;;;2.70;;
8488;SDS011;4281;45.772;12.852;2023-06-24T00:48:10;3.33;;;2.93;;
8488;SDS011;4281;45.772;12.852;2023-06-24T00:50:37;4.07;;;2.77;;
8488;SDS011;4281;45.772;12.852;2023-06-24T00:53:08;2.90;;;2.70;;
8488;SDS011;4281;45.772;12.852;2023-06-24T00:55:38;3.83;;;3.17;;
8488;SDS011;4281;45.772;12.852;2023-06-24T00:58:06;3.10;;;2.80;;
8488;SDS011;4281;45.772;12.852;2023-06-24T01:00:34;3.70;;;3.00;;
8488;SDS011;4281;45.772;12.852;2023-06-24T01:03:03;3.13;;;2.90;;
8488;SDS011;4281;45.772;12.852;2023-06-24T01:05:33;3.33;;;2.80;;
8488;SDS011;4281;45.772;12.852;2023-06-24T01:08:02;3.43;;;2.87;;
8488;SDS011;4281;45.772;12.852;2023-06-24T01:10:30;3.63;;;2.97;;
8488;SDS011;4281;45.772;12.852;2023-06-24T01:12:58;3.53;;;3.03;;
8488;SDS011;4281;45.772;12.852;2023-06-24T01:15:26;3.50;;;3.03;;
8488;SDS011;4281;45.772;12.852;2023-06-24T01:17:56;3.67;;;2.93;;
8488;SDS011;4281;45.772;12.852;2023-06-24T01:20:29;3.50;;;3.20;;
8488;SDS011;4281;45.772;12.852;2023-06-24T01:23:06;3.30;;;3.00;;
8488;SDS011;4281;45.772;12.852;2023-06-24T01:25:49;3.30;;;2.77;;
8488;SDS011;4281;45.772;12.852;2023-06-24T01:28:32;3.30;;;3.00;;
8488;SDS011;4281;45.772;12.852;2023-06-24T01:34:06;5.10;;;3.00;;
8488;SDS011;4281;45.772;12.852;2023-06-24T01:36:41;3.97;;;3.03;;
8488;SDS011;4281;45.772;12.852;2023-06-24T01:39:20;3.37;;;3.07;;
8488;SDS011;4281;45.772;12.852;2023-06-24T01:41:53;3.43;;;3.13;;
8488;SDS011;4281;45.772;12.852;2023-06-24T01:44:23;3.33;;;3.03;;
8488;SDS011;4281;45.772;12.852;2023-06-24T01:46:54;3.50;;;3.20;;
8488;SDS011;4281;45.772;12.852;2023-06-24T01:49:26;3.03;;;2.80;;
8488;SDS011;4281;45.772;12.852;2023-06-24T01:51:56;4.00;;;3.33;;
8488;SDS011;4281;45.772;12.852;2023-06-24T01:54:25;3.73;;;3.37;;
8488;SDS011;4281;45.772;12.852;2023-06-24T01:56:54;4.40;;;3.73;;
8488;SDS011;4281;45.772;12.852;2023-06-24T01:59:23;3.60;;;3.30;;
8488;SDS011;4281;45.772;12.852;2023-06-24T02:01:54;3.50;;;3.20;;
8488;SDS011;4281;45.772;12.852;2023-06-24T02:04:22;3.43;;;3.13;;
8488;SDS011;4281;45.772;12.852;2023-06-24T02:06:51;3.70;;;3.37;;
8488;SDS011;4281;45.772;12.852;2023-06-24T02:09:21;3.27;;;3.07;;
8488;SDS011;4281;45.772;12.852;2023-06-24T02:11:49;4.70;;;3.13;;
8488;SDS011;4281;45.772;12.852;2023-06-24T02:14:17;3.83;;;3.13;;
8488;SDS011;4281;45.772;12.852;2023-06-24T02:16:46;3.23;;;2.93;;
8488;SDS011;4281;45.772;12.852;2023-06-24T02:19:16;3.40;;;3.00;;
8488;SDS011;4281;45.772;12.852;2023-06-24T02:21:45;3.13;;;2.90;;
8488;SDS011;4281;45.772;12.852;2023-06-24T02:24:14;3.53;;;3.10;;
8488;SDS011;4281;45.772;12.852;2023-06-24T02:26:42;3.47;;;3.13;;
8488;SDS011;4281;45.772;12.852;2023-06-24T02:29:11;4.13;;;3.07;;
8488;SDS011;4281;45.772;12.852;2023-06-24T02:31:40;3.73;;;3.17;;
8488;SDS011;4281;45.772;12.852;2023-06-24T02:34:08;4.03;;;3.30;;
8488;SDS011;4281;45.772;12.852;2023-06-24T02:36:37;3.20;;;2.97;;
8488;SDS011;4281;45.772;12.852;2023-06-24T02:39:05;4.47;;;3.27;;
8488;SDS011;4281;45.772;12.852;2023-06-24T02:41:33;3.20;;;2.90;;
8488;SDS011;4281;45.772;12.852;2023-06-24T02:44:02;3.27;;;2.97;;
8488;SDS011;4281;45.772;12.852;2023-06-24T02:46:30;3.70;;;3.40;;
8488;SDS011;4281;45.772;12.852;2023-06-24T02:48:59;3.40;;;2.80;;
8488;SDS011;4281;45.772;12.852;2023-06-24T02:51:27;3.60;;;3.30;;
8488;SDS011;4281;45.772;12.852;2023-06-24T02:53:57;3.27;;;2.97;;
8488;SDS011;4281;45.772;12.852;2023-06-24T02:56:25;3.87;;;3.47;;
8488;SDS011;4281;45.772;12.852;2023-06-24T02:58:54;3.40;;;3.10;;
8488;SDS011;4281;45.772;12.852;2023-06-24T03:01:22;3.67;;;3.33;;
8488;SDS011;4281;45.772;12.852;2023-06-24T03:03:53;3.60;;;3.30;;
8488;SDS011;4281;45.772;12.852;2023-06-24T03:06:21;4.17;;;3.30;;
8488;SDS011;4281;45.772;12.852;2023-06-24T03:08:50;3.70;;;3.40;;
8488;SDS011;4281;45.772;12.852;2023-06-24T03:11:20;4.37;;;3.43;;
8488;SDS011;4281;45.772;12.852;2023-06-24T03:13:48;3.63;;;3.33;;
8488;SDS011;4281;45.772;12.852;2023-06-24T03:16:16;3.50;;;3.20;;
8488;SDS011;4281;45.772;12.852;2023-06-24T03:18:44;3.50;;;3.20;;
8488;SDS011;4281;45.772;12.852;2023-06-24T03:21:12;3.90;;;3.60;;
8488;SDS011;4281;45.772;12.852;2023-06-24T03:23:40;3.43;;;2.97;;
8488;SDS011;4281;45.772;12.852;2023-06-24T03:26:08;4.00;;;3.30;;
8488;SDS011;4281;45.772;12.852;2023-06-24T03:28:37;3.93;;;3.60;;
8488;SDS011;4281;45.772;12.852;2023-06-24T03:31:05;4.17;;;3.60;;
8488;SDS011;4281;45.772;12.852;2023-06-24T03:33:33;3.27;;;2.97;;
8488;SDS011;4281;45.772;12.852;2023-06-24T03:36:02;3.47;;;3.17;;
8488;SDS011;4281;45.772;12.852;2023-06-24T03:38:30;3.57;;;3.27;;
8488;SDS011;4281;45.772;12.852;2023-06-24T03:40:58;3.60;;;3.30;;
8488;SDS011;4281;45.772;12.852;2023-06-24T03:43:26;3.77;;;3.47;;
8488;SDS011;4281;45.772;12.852;2023-06-24T03:45:55;3.30;;;3.00;;
8488;SDS011;4281;45.772;12.852;2023-06-24T03:48:23;3.40;;;3.10;;
8488;SDS011;4281;45.772;12.852;2023-06-24T03:50:51;3.60;;;3.30;;
8488;SDS011;4281;45.772;12.852;2023-06-24T03:53:18;3.23;;;2.93;;
8488;SDS011;4281;45.772;12.852;2023-06-24T03:55:46;3.37;;;3.07;;
8488;SDS011;4281;45.772;12.852;2023-06-24T03:58:15;3.60;;;3.30;;
8488;SDS011;4281;45.772;12.852;2023-06-24T04:00:43;3.73;;;3.40;;
8488;SDS011;4281;45.772;12.852;2023-06-24T04:03:13;3.60;;;3.30;;
8488;SDS011;4281;45.772;12.852;2023-06-24T04:05:41;3.80;;;3.00;;
8488;SDS011;4281;45.772;12.852;2023-06-24T04:08:09;3.30;;;3.10;;
8488;SDS011;4281;45.772;12.852;2023-06-24T04:10:36;3.50;;;3.20;;
8488;SDS011;4281;45.772;12.852;2023-06-24T04:13:04;3.57;;;3.27;;
8488;SDS011;4281;45.772;12.852;2023-06-24T04:15:32;3.03;;;2.80;;
8488;SDS011;4281;45.772;12.852;2023-06-24T04:18:00;4.00;;;3.27;;
8488;SDS011;4281;45.772;12.852;2023-06-24T04:20:30;3.63;;;3.33;;
8488;SDS011;4281;45.772;12.852;2023-06-24T04:22:59;3.67;;;3.37;;
8488;SDS011;4281;45.772;12.852;2023-06-24T04:25:27;4.00;;;3.37;;
8488;SDS011;4281;45.772;12.852;2023-06-24T04:27:55;3.67;;;3.37;;
8488;SDS011;4281;45.772;12.852;2023-06-24T04:30:23;3.30;;;3.00;;
8488;SDS011;4281;45.772;12.852;2023-06-24T04:32:51;3.57;;;3.27;;
8488;SDS011;4281;45.772;12.852;2023-06-24T04:35:19;3.70;;;3.40;;
8488;SDS011;4281;45.772;12.852;2023-06-24T04:37:48;3.70;;;3.40;;
8488;SDS011;4281;45.772;12.852;2023-06-24T04:40:16;3.77;;;3.47;;
8488;SDS011;4281;45.772;12.852;2023-06-24T04:42:45;3.43;;;3.13;;
8488;SDS011;4281;45.772;12.852;2023-06-24T04:45:13;3.77;;;3.47;;
8488;SDS011;4281;45.772;12.852;2023-06-24T04:47:41;3.83;;;3.50;;
8488;SDS011;4281;45.772;12.852;2023-06-24T04:50:10;3.53;;;3.23;;
8488;SDS011;4281;45.772;12.852;2023-06-24T04:52:38;3.47;;;3.17;;
8488;SDS011;4281;45.772;12.852;2023-06-24T04:55:08;4.13;;;3.67;;
8488;SDS011;4281;45.772;12.852;2023-06-24T04:57:36;3.70;;;3.40;;
8488;SDS011;4281;45.772;12.852;2023-06-24T05:00:04;3.37;;;3.07;;
8488;SDS011;4281;45.772;12.852;2023-06-24T05:02:33;3.20;;;2.90;;
8488;SDS011;4281;45.772;12.852;2023-06-24T05:05:01;3.67;;;3.23;;
8488;SDS011;4281;45.772;12.852;2023-06-24T05:07:29;3.73;;;3.43;;
8488;SDS011;4281;45.772;12.852;2023-06-24T05:09:57;3.40;;;3.10;;
8488;SDS011;4281;45.772;12.852;2023-06-24T05:12:26;3.40;;;3.10;;
8488;SDS011;4281;45.772;12.852;2023-06-24T05:14:55;3.47;;;3.17;;
8488;SDS011;4281;45.772;12.852;2023-06-24T05:17:23;3.33;;;3.03;;
8488;SDS011;4281;45.772;12.852;2023-06-24T05:19:51;4.40;;;3.37;;
8488;SDS011;4281;45.772;12.852;2023-06-24T05:22:18;3.47;;;3.17;;
8488;SDS011;4281;45.772;12.852;2023-06-24T05:24:46;3.60;;;3.30;;
8488;SDS011;4281;45.772;12.852;2023-06-24T05:27:14;3.83;;;3.30;;
8488;SDS011;4281;45.772;12.852;2023-06-24T05:29:45;3.50;;;3.23;;
8488;SDS011;4281;45.772;12.852;2023-06-24T05:32:13;3.40;;;3.10;;
8488;SDS011;4281;45.772;12.852;2023-06-24T05:34:41;3.37;;;3.13;;
8488;SDS011;4281;45.772;12.852;2023-06-24T05:37:09;3.83;;;3.43;;
8488;SDS011;4281;45.772;12.852;2023-06-24T05:39:37;3.73;;;3.43;;
8488;SDS011;4281;45.772;12.852;2023-06-24T05:42:05;4.97;;;3.57;;
8488;SDS011;4281;45.772;12.852;2023-06-24T05:44:33;3.50;;;3.20;;
8488;SDS011;4281;45.772;12.852;2023-06-24T05:47:02;4.13;;;3.67;;
8488;SDS011;4281;45.772;12.852;2023-06-24T05:49:31;3.57;;;3.20;;
8488;SDS011;4281;45.772;12.852;2023-06-24T05:51:59;3.43;;;3.13;;
8488;SDS011;4281;45.772;12.852;2023-06-24T05:54:27;3.93;;;3.53;;
8488;SDS011;4281;45.772;12.852;2023-06-24T05:56:54;3.37;;;3.07;;
8488;SDS011;4281;45.772;12.852;2023-06-24T05:59:22;3.60;;;3.30;;
8488;SDS011;4281;45.772;12.852;2023-06-24T06:01:50;3.80;;;3.40;;
8488;SDS011;4281;45.772;12.852;2023-06-24T06:04:20;3.30;;;3.00;;
8488;SDS011;4281;45.772;12.852;2023-06-24T06:06:47;3.60;;;3.30;;
8488;SDS011;4281;45.772;12.852;2023-06-24T06:09:15;5.60;;;3.73;;
8488;SDS011;4281;45.772;12.852;2023-06-24T06:16:31;3.90;;;3.50;;
8488;SDS011;4281;45.772;12.852;2023-06-24T06:18:59;5.40;;;3.87;;
8488;SDS011;4281;45.772;12.852;2023-06-24T06:21:27;4.23;;;3.50;;
8488;SDS011;4281;45.772;12.852;2023-06-24T06:23:54;4.07;;;3.57;;
8488;SDS011;4281;45.772;12.852;2023-06-24T06:26:22;3.43;;;3.13;;
8488;SDS011;4281;45.772;12.852;2023-06-24T06:28:50;4.07;;;3.67;;
8488;SDS011;4281;45.772;12.852;2023-06-24T06:31:19;3.70;;;3.40;;
8488;SDS011;4281;45.772;12.852;2023-06-24T06:33:50;5.33;;;3.50;;
8488;SDS011;4281;45.772;12.852;2023-06-24T06:36:18;3.90;;;3.60;;
8488;SDS011;4281;45.772;12.852;2023-06-24T06:38:46;3.57;;;3.27;;
8488;SDS011;4281;45.772;12.852;2023-06-24T06:41:14;3.50;;;3.20;;
8488;SDS011;4281;45.772;12.852;2023-06-24T06:47:07;3.43;;;3.13;;
8488;SDS011;4281;45.772;12.852;2023-06-24T06:49:35;4.30;;;3.90;;
8488;SDS011;4281;45.772;12.852;2023-06-24T06:52:05;3.97;;;3.43;;
8488;SDS011;4281;45.772;12.852;2023-06-24T06:54:33;4.33;;;3.70;;
8488;SDS011;4281;45.772;12.852;2023-06-24T06:57:01;3.60;;;3.30;;
8488;SDS011;4281;45.772;12.852;2023-06-24T06:59:30;4.57;;;3.80;;
8488;SDS011;4281;45.772;12.852;2023-06-24T07:01:57;4.70;;;3.97;;
8488;SDS011;4281;45.772;12.852;2023-06-24T07:04:27;5.37;;;3.83;;
8488;SDS011;4281;45.772;12.852;2023-06-24T07:06:57;4.50;;;3.70;;
8488;SDS011;4281;45.772;12.852;2023-06-24T07:09:25;3.97;;;3.57;;
8488;SDS011;4281;45.772;12.852;2023-06-24T07:11:52;3.73;;;3.37;;
8488;SDS011;4281;45.772;12.852;2023-06-24T07:14:20;4.30;;;3.23;;
8488;SDS011;4281;45.772;12.852;2023-06-24T07:16:48;3.83;;;3.27;;
8488;SDS011;4281;45.772;12.852;2023-06-24T07:19:16;5.20;;;3.47;;
8488;SDS011;4281;45.772;12.852;2023-06-24T07:21:45;3.47;;;2.87;;
8488;SDS011;4281;45.772;12.852;2023-06-24T07:24:13;3.87;;;3.53;;
8488;SDS011;4281;45.772;12.852;2023-06-24T07:26:41;3.67;;;3.33;;
8488;SDS011;4281;45.772;12.852;2023-06-24T07:29:09;5.40;;;3.77;;
8488;SDS011;4281;45.772;12.852;2023-06-24T07:31:37;5.37;;;3.47;;
8488;SDS011;4281;45.772;12.852;2023-06-24T07:34:05;3.60;;;3.30;;
8488;SDS011;4281;45.772;12.852;2023-06-24T07:36:33;4.97;;;3.40;;
8488;SDS011;4281;45.772;12.852;2023-06-24T07:39:02;4.17;;;3.53;;
8488;SDS011;4281;45.772;12.852;2023-06-24T07:41:30;4.43;;;3.60;;
8488;SDS011;4281;45.772;12.852;2023-06-24T07:43:58;4.07;;;3.67;;
8488;SDS011;4281;45.772;12.852;2023-06-24T07:46:26;4.70;;;4.20;;
8488;SDS011;4281;45.772;12.852;2023-06-24T07:48:54;4.83;;;4.40;;
8488;SDS011;4281;45.772;12.852;2023-06-24T07:51:22;5.43;;;4.13;;
8488;SDS011;4281;45.772;12.852;2023-06-24T07:53:50;5.53;;;4.50;;
8488;SDS011;4281;45.772;12.852;2023-06-24T07:56:19;4.90;;;4.17;;
8488;SDS011;4281;45.772;12.852;2023-06-24T07:58:47;5.63;;;3.77;;
8488;SDS011;4281;45.772;12.852;2023-06-24T08:01:15;3.70;;;3.30;;
8488;SDS011;4281;45.772;12.852;2023-06-24T08:03:43;3.50;;;3.20;;
8488;SDS011;4281;45.772;12.852;2023-06-24T08:06:11;2.77;;;2.57;;
8488;SDS011;4281;45.772;12.852;2023-06-24T08:08:39;2.80;;;2.60;;
8488;SDS011;4281;45.772;12.852;2023-06-24T08:11:07;2.77;;;2.57;;
8488;SDS011;4281;45.772;12.852;2023-06-24T08:13:36;2.53;;;2.33;;
8488;SDS011;4281;45.772;12.852;2023-06-24T08:16:04;2.90;;;2.70;;
8488;SDS011;4281;45.772;12.852;2023-06-24T08:18:32;2.90;;;2.70;;
8488;SDS011;4281;45.772;12.852;2023-06-24T08:21:00;4.30;;;2.90;;
8488;SDS011;4281;45.772;12.852;2023-06-24T08:23:28;2.83;;;2.53;;
8488;SDS011;4281;45.772;12.852;2023-06-24T08:25:56;3.20;;;2.90;;
8488;SDS011;4281;45.772;12.852;2023-06-24T08:28:43;2.73;;;2.53;;
8488;SDS011;4281;45.772;12.852;2023-06-24T08:31:11;2.47;;;2.27;;
8488;SDS011;4281;45.772;12.852;2023-06-24T08:33:41;2.53;;;2.23;;
8488;SDS011;4281;45.772;12.852;2023-06-24T08:36:10;3.60;;;2.30;;
8488;SDS011;4281;45.772;12.852;2023-06-24T08:38:38;3.13;;;2.00;;
8488;SDS011;4281;45.772;12.852;2023-06-24T08:41:06;3.13;;;2.40;;
8488;SDS011;4281;45.772;12.852;2023-06-24T08:43:34;2.60;;;2.30;;
8488;SDS011;4281;45.772;12.852;2023-06-24T08:46:05;3.17;;;2.40;;
8488;SDS011;4281;45.772;12.852;2023-06-24T08:48:33;2.83;;;2.63;;
8488;SDS011;4281;45.772;12.852;2023-06-24T08:51:07;2.77;;;2.33;;
8488;SDS011;4281;45.772;12.852;2023-06-24T08:53:35;3.40;;;2.30;;
8488;SDS011;4281;45.772;12.852;2023-06-24T08:56:05;2.60;;;2.40;;
8488;SDS011;4281;45.772;12.852;2023-06-24T08:58:33;2.70;;;2.00;;
8488;SDS011;4281;45.772;12.852;2023-06-24T09:01:01;2.17;;;1.97;;
8488;SDS011;4281;45.772;12.852;2023-06-24T09:03:31;2.20;;;2.00;;
8488;SDS011;4281;45.772;12.852;2023-06-24T09:05:59;2.17;;;1.93;;
8488;SDS011;4281;45.772;12.852;2023-06-24T09:08:27;2.60;;;2.40;;
8488;SDS011;4281;45.772;12.852;2023-06-24T09:10:55;2.63;;;2.07;;
8488;SDS011;4281;45.772;12.852;2023-06-24T09:13:27;2.93;;;2.20;;
8488;SDS011;4281;45.772;12.852;2023-06-24T09:15:57;2.43;;;2.23;;
8488;SDS011;4281;45.772;12.852;2023-06-24T09:18:31;2.43;;;2.23;;
8488;SDS011;4281;45.772;12.852;2023-06-24T09:21:00;2.73;;;2.53;;
8488;SDS011;4281;45.772;12.852;2023-06-24T09:23:29;2.47;;;2.00;;
8488;SDS011;4281;45.772;12.852;2023-06-24T09:25:57;2.40;;;2.20;;
8488;SDS011;4281;45.772;12.852;2023-06-24T09:28:26;2.53;;;2.20;;
8488;SDS011;4281;45.772;12.852;2023-06-24T09:31:04;2.13;;;2.03;;
8488;SDS011;4281;45.772;12.852;2023-06-24T09:33:46;2.33;;;2.13;;
8488;SDS011;4281;45.772;12.852;2023-06-24T09:36:14;2.67;;;2.20;;
8488;SDS011;4281;45.772;12.852;2023-06-24T09:38:43;2.57;;;2.37;;
8488;SDS011;4281;45.772;12.852;2023-06-24T09:41:12;2.43;;;2.20;;
8488;SDS011;4281;45.772;12.852;2023-06-24T09:43:42;2.53;;;2.30;;
8488;SDS011;4281;45.772;12.852;2023-06-24T09:46:11;2.17;;;1.97;;
8488;SDS011;4281;45.772;12.852;2023-06-24T09:48:40;2.73;;;2.27;;
8488;SDS011;4281;45.772;12.852;2023-06-24T09:51:09;2.30;;;2.00;;
8488;SDS011;4281;45.772;12.852;2023-06-24T09:53:39;2.90;;;2.27;;
8488;SDS011;4281;45.772;12.852;2023-06-24T09:56:08;2.40;;;2.20;;
8488;SDS011;4281;45.772;12.852;2023-06-24T09:58:36;2.50;;;1.90;;
8488;SDS011;4281;45.772;12.852;2023-06-24T10:01:04;2.67;;;2.27;;
8488;SDS011;4281;45.772;12.852;2023-06-24T10:03:34;2.93;;;2.30;;
8488;SDS011;4281;45.772;12.852;2023-06-24T10:06:04;3.63;;;2.03;;
8488;SDS011;4281;45.772;12.852;2023-06-24T10:08:34;2.40;;;2.20;;
8488;SDS011;4281;45.772;12.852;2023-06-24T10:11:03;2.23;;;2.03;;
8488;SDS011;4281;45.772;12.852;2023-06-24T10:13:31;2.20;;;1.90;;
8488;SDS011;4281;45.772;12.852;2023-06-24T10:15:59;2.13;;;1.90;;
8488;SDS011;4281;45.772;12.852;2023-06-24T10:18:33;2.10;;;1.90;;
8488;SDS011;4281;45.772;12.852;2023-06-24T10:21:05;3.77;;;1.90;;
8488;SDS011;4281;45.772;12.852;2023-06-24T10:23:40;1.97;;;1.87;;
8488;SDS011;4281;45.772;12.852;2023-06-24T10:26:09;2.10;;;1.90;;
8488;SDS011;4281;45.772;12.852;2023-06-24T10:31:50;1.50;;;1.40;;
8488;SDS011;4281;45.772;12.852;2023-06-24T10:34:24;1.80;;;1.70;;
8488;SDS011;4281;45.772;12.852;2023-06-24T10:36:55;1.67;;;1.57;;
8488;SDS011;4281;45.772;12.852;2023-06-24T10:39:35;1.60;;;1.50;;
8488;SDS011;4281;45.772;12.852;2023-06-24T10:45:16;1.53;;;1.43;;
8488;SDS011;4281;45.772;12.852;2023-06-24T10:47:46;1.60;;;1.50;;
8488;SDS011;4281;45.772;12.852;2023-06-24T10:50:19;1.50;;;1.40;;
8488;SDS011;4281;45.772;12.852;2023-06-24T10:55:35;1.67;;;1.57;;
8488;SDS011;4281;45.772;12.852;2023-06-24T10:58:06;1.50;;;1.40;;
8488;SDS011;4281;45.772;12.852;2023-06-24T11:00:38;2.80;;;1.63;;
8488;SDS011;4281;45.772;12.852;2023-06-24T11:03:09;3.00;;;1.30;;
8488;SDS011;4281;45.772;12.852;2023-06-24T11:05:38;1.60;;;1.50;;
8488;SDS011;4281;45.772;12.852;2023-06-24T11:08:07;1.97;;;1.70;;
8488;SDS011;4281;45.772;12.852;2023-06-24T11:10:43;1.70;;;1.60;;
8488;SDS011;4281;45.772;12.852;2023-06-24T11:13:12;1.70;;;1.60;;
8488;SDS011;4281;45.772;12.852;2023-06-24T11:15:40;1.73;;;1.63;;
8488;SDS011;4281;45.772;12.852;2023-06-24T11:18:09;1.60;;;1.50;;
8488;SDS011;4281;45.772;12.852;2023-06-24T11:20:37;1.50;;;1.40;;
8488;SDS011;4281;45.772;12.852;2023-06-24T11:23:06;2.33;;;1.37;;
8488;SDS011;4281;45.772;12.852;2023-06-24T11:25:38;1.60;;;1.50;;
8488;SDS011;4281;45.772;12.852;2023-06-24T11:34:17;1.70;;;1.60;;
8488;SDS011;4281;45.772;12.852;2023-06-24T11:36:45;1.80;;;1.70;;
8488;SDS011;4281;45.772;12.852;2023-06-24T11:39:38;1.53;;;1.43;;
8488;SDS011;4281;45.772;12.852;2023-06-24T11:42:06;1.60;;;1.37;;
8488;SDS011;4281;45.772;12.852;2023-06-24T11:51:50;1.43;;;1.33;;
8488;SDS011;4281;45.772;12.852;2023-06-24T11:56:07;1.40;;;1.30;;
8488;SDS011;4281;45.772;12.852;2023-06-24T12:00:24;1.30;;;1.20;;
8488;SDS011;4281;45.772;12.852;2023-06-24T12:07:39;1.40;;;1.30;;
8488;SDS011;4281;45.772;12.852;2023-06-24T12:10:08;1.30;;;1.20;;
8488;SDS011;4281;45.772;12.852;2023-06-24T12:12:36;1.20;;;1.10;;
8488;SDS011;4281;45.772;12.852;2023-06-24T12:15:04;1.43;;;1.33;;
8488;SDS011;4281;45.772;12.852;2023-06-24T12:31:55;1.30;;;1.20;;
8488;SDS011;4281;45.772;12.852;2023-06-24T12:34:23;1.40;;;1.30;;
8488;SDS011;4281;45.772;12.852;2023-06-24T12:42:21;1.60;;;1.00;;
8488;SDS011;4281;45.772;12.852;2023-06-24T12:44:49;1.10;;;1.00;;
8488;SDS011;4281;45.772;12.852;2023-06-24T12:47:18;2.33;;;1.07;;
8488;SDS011;4281;45.772;12.852;2023-06-24T12:49:46;1.03;;;0.97;;
8488;SDS011;4281;45.772;12.852;2023-06-24T12:52:14;1.93;;;1.03;;
8488;SDS011;4281;45.772;12.852;2023-06-24T12:54:42;0.97;;;0.80;;
8488;SDS011;4281;45.772;12.852;2023-06-24T12:57:10;0.93;;;0.93;;
8488;SDS011;4281;45.772;12.852;2023-06-24T12:59:41;1.00;;;0.93;;
8488;SDS011;4281;45.772;12.852;2023-06-24T13:02:09;1.77;;;1.30;;
8488;SDS011;4281;45.772;12.852;2023-06-24T13:04:37;1.50;;;1.30;;
8488;SDS011;4281;45.772;12.852;2023-06-24T13:07:05;1.77;;;1.33;;
8488;SDS011;4281;45.772;12.852;2023-06-24T13:09:33;1.73;;;1.20;;
8488;SDS011;4281;45.772;12.852;2023-06-24T13:12:01;1.70;;;1.60;;
8488;SDS011;4281;45.772;12.852;2023-06-24T13:14:30;2.60;;;1.97;;
8488;SDS011;4281;45.772;12.852;2023-06-24T13:16:59;1.97;;;1.37;;
8488;SDS011;4281;45.772;12.852;2023-06-24T13:19:27;2.83;;;1.30;;
8488;SDS011;4281;45.772;12.852;2023-06-24T13:21:55;1.87;;;1.23;;
8488;SDS011;4281;45.772;12.852;2023-06-24T13:24:23;1.70;;;1.50;;
8488;SDS011;4281;45.772;12.852;2023-06-24T13:26:51;2.03;;;1.30;;
8488;SDS011;4281;45.772;12.852;2023-06-24T13:29:19;1.23;;;1.13;;
8488;SDS011;4281;45.772;12.852;2023-06-24T13:31:47;1.20;;;1.10;;
8488;SDS011;4281;45.772;12.852;2023-06-24T13:34:17;1.60;;;1.50;;
8488;SDS011;4281;45.772;12.852;2023-06-24T13:36:45;1.67;;;1.57;;
8488;SDS011;4281;45.772;12.852;2023-06-24T13:39:14;1.43;;;1.33;;
8488;SDS011;4281;45.772;12.852;2023-06-24T13:41:43;1.37;;;1.27;;
8488;SDS011;4281;45.772;12.852;2023-06-24T13:44:12;1.37;;;1.27;;
8488;SDS011;4281;45.772;12.852;2023-06-24T13:46:40;2.27;;;1.30;;
8488;SDS011;4281;45.772;12.852;2023-06-24T13:49:08;1.30;;;1.20;;
8488;SDS011;4281;45.772;12.852;2023-06-24T13:51:37;1.30;;;1.20;;
8488;SDS011;4281;45.772;12.852;2023-06-24T13:54:05;1.60;;;1.50;;
8488;SDS011;4281;45.772;12.852;2023-06-24T13:56:33;2.00;;;1.80;;
8488;SDS011;4281;45.772;12.852;2023-06-24T13:59:01;1.70;;;1.60;;
8488;SDS011;4281;45.772;12.852;2023-06-24T14:01:29;1.40;;;1.30;;
8488;SDS011;4281;45.772;12.852;2023-06-24T14:03:58;3.10;;;1.33;;
8488;SDS011;4281;45.772;12.852;2023-06-24T14:06:26;1.97;;;1.60;;
8488;SDS011;4281;45.772;12.852;2023-06-24T14:08:55;3.30;;;1.70;;
8488;SDS011;4281;45.772;12.852;2023-06-24T14:11:23;2.43;;;1.30;;
8488;SDS011;4281;45.772;12.852;2023-06-24T14:13:51;1.47;;;1.30;;
8488;SDS011;4281;45.772;12.852;2023-06-24T14:16:21;1.40;;;1.30;;
8488;SDS011;4281;45.772;12.852;2023-06-24T14:18:49;2.00;;;1.27;;
8488;SDS011;4281;45.772;12.852;2023-06-24T14:21:17;1.67;;;1.57;;
8488;SDS011;4281;45.772;12.852;2023-06-24T14:23:45;1.17;;;1.17;;
8488;SDS011;4281;45.772;12.852;2023-06-24T14:26:14;1.40;;;1.30;;
8488;SDS011;4281;45.772;12.852;2023-06-24T14:28:42;1.30;;;1.20;;
8488;SDS011;4281;45.772;12.852;2023-06-24T14:31:11;1.20;;;1.10;;
8488;SDS011;4281;45.772;12.852;2023-06-24T14:33:40;1.07;;;1.03;;
8488;SDS011;4281;45.772;12.852;2023-06-24T14:36:08;1.00;;;1.00;;
8488;SDS011;4281;45.772;12.852;2023-06-24T14:38:36;0.70;;;0.70;;
8488;SDS011;4281;45.772;12.852;2023-06-24T14:41:04;1.00;;;1.00;;
8488;SDS011;4281;45.772;12.852;2023-06-24T14:43:35;0.90;;;0.90;;
8488;SDS011;4281;45.772;12.852;2023-06-24T14:46:03;1.87;;;1.17;;
8488;SDS011;4281;45.772;12.852;2023-06-24T14:48:31;1.00;;;1.00;;
8488;SDS011;4281;45.772;12.852;2023-06-24T14:50:59;1.03;;;0.93;;
8488;SDS011;4281;45.772;12.852;2023-06-24T14:53:26;0.90;;;0.90;;
8488;SDS011;4281;45.772;12.852;2023-06-24T14:55:54;1.97;;;1.20;;
8488;SDS011;4281;45.772;12.852;2023-06-24T14:58:22;1.10;;;1.10;;
8488;SDS011;4281;45.772;12.852;2023-06-24T15:00:52;2.00;;;1.00;;
8488;SDS011;4281;45.772;12.852;2023-06-24T15:03:19;1.13;;;0.90;;
8488;SDS011;4281;45.772;12.852;2023-06-24T15:05:47;0.90;;;0.90;;
8488;SDS011;4281;45.772;12.852;2023-06-24T15:08:15;2.70;;;1.00;;
8488;SDS011;4281;45.772;12.852;2023-06-24T15:10:43;1.20;;;1.10;;
8488;SDS011;4281;45.772;12.852;2023-06-24T15:13:11;1.30;;;1.20;;
8488;SDS011;4281;45.772;12.852;2023-06-24T15:15:39;1.07;;;1.07;;
8488;SDS011;4281;45.772;12.852;2023-06-24T15:18:08;1.17;;;1.10;;
8488;SDS011;4281;45.772;12.852;2023-06-24T15:20:38;1.00;;;1.00;;
8488;SDS011;4281;45.772;12.852;2023-06-24T15:23:05;0.93;;;0.93;;
8488;SDS011;4281;45.772;12.852;2023-06-24T15:25:33;1.07;;;1.00;;
8488;SDS011;4281;45.772;12.852;2023-06-24T15:28:01;1.10;;;1.10;;
8488;SDS011;4281;45.772;12.852;2023-06-24T15:30:29;1.43;;;1.33;;
8488;SDS011;4281;45.772;12.852;2023-06-24T15:32:57;1.50;;;1.27;;
8488;SDS011;4281;45.772;12.852;2023-06-24T15:35:27;2.50;;;1.10;;
8488;SDS011;4281;45.772;12.852;2023-06-24T15:37:55;2.10;;;1.00;;
8488;SDS011;4281;45.772;12.852;2023-06-24T15:40:22;1.63;;;0.93;;
8488;SDS011;4281;45.772;12.852;2023-06-24T15:42:50;0.70;;;0.70;;
8488;SDS011;4281;45.772;12.852;2023-06-24T15:45:19;1.10;;;0.80;;
8488;SDS011;4281;45.772;12.852;2023-06-24T15:47:48;0.70;;;0.60;;
8488;SDS011;4281;45.772;12.852;2023-06-24T15:50:16;0.70;;;0.70;;
8488;SDS011;4281;45.772;12.852;2023-06-24T15:52:45;0.97;;;0.90;;
8488;SDS011;4281;45.772;12.852;2023-06-24T15:55:13;1.93;;;1.00;;
8488;SDS011;4281;45.772;12.852;2023-06-24T15:57:41;1.50;;;1.40;;
8488;SDS011;4281;45.772;12.852;2023-06-24T16:00:09;1.27;;;1.17;;
8488;SDS011;4281;45.772;12.852;2023-06-24T16:02:38;2.10;;;1.37;;
8488;SDS011;4281;45.772;12.852;2023-06-24T16:05:07;1.60;;;1.50;;
8488;SDS011;4281;45.772;12.852;2023-06-24T16:07:35;2.13;;;1.90;;
8488;SDS011;4281;45.772;12.852;2023-06-24T16:10:05;2.43;;;1.87;;
8488;SDS011;4281;45.772;12.852;2023-06-24T16:12:34;1.33;;;1.23;;